NCAR-RAP Real-Time Weather Data

Output produced by METARs form (26 July 2016  06:21 UTC)
found at http://weather.rap.ucar.edu/surface/
 
Conditions at: K4O4 observed 26 July 2016  06:15 UTC
Temperature: 23.0°C (73°F)
Dewpoint: 21.0°C (70°F) [RH = 89%]
Pressure (altimeter): 29.95 inches Hg (1014.3 mb)
Winds: from the N (10 degrees) at 3 MPH (3 knots; 1.6 m/s)
Visibility: 10 or more miles (16+ km)
Ceiling: at least 12,000 feet AGL
Clouds: scattered clouds at 4900 feet AGL
Present Weather: automated observation with no human augmentation;
there may or may not be significant weather present at this time
K4O4 260615Z AUTO 01003KT 10SM SCT049 23/21 A2995 RMK AO2